Time;durP1;ratioP1;P1;durP2;ratioP2;P2;SDS_P1;SDS_P2;PMS_P1;PMS_P2;Temp;Humidity;BMP_temperature;BMP_pressure;BME280_temperature;BME280_humidity;BME280_pressure;Samples;Min_cycle;Max_cycle;Signal;HPM_P1;HPM_P2
2023/01/03 00:00:10;;;;;;;2.37;1.50;;;9.70;98.00;;;;;;4973298;28;20930;-72
2023/01/03 00:02:39;;;;;;;2.00;1.30;;;9.70;98.00;;;;;;4956283;28;20457;-72
2023/01/03 00:05:08;;;;;;;1.20;1.10;;;9.60;98.00;;;;;;4972987;28;20464;-72
2023/01/03 00:07:35;;;;;;;1.50;1.10;;;9.60;98.00;;;;;;4973117;28;20463;-72
2023/01/03 00:10:04;;;;;;;1.97;1.33;;;9.70;98.00;;;;;;4972979;28;20591;-72
2023/01/03 00:12:31;;;;;;;1.70;1.30;;;9.60;98.00;;;;;;4972876;28;21022;-72
2023/01/03 00:15:00;;;;;;;1.80;1.40;;;9.60;98.00;;;;;;4973054;28;20458;-72
2023/01/03 00:17:27;;;;;;;1.90;1.33;;;9.60;98.00;;;;;;4972977;28;20457;-72
2023/01/03 00:19:54;;;;;;;2.40;1.53;;;9.60;98.00;;;;;;4972969;28;20465;-72
2023/01/03 00:22:22;;;;;;;2.40;1.60;;;9.80;98.00;;;;;;4973205;28;20468;-72
2023/01/03 00:24:49;;;;;;;2.13;1.30;;;9.80;98.00;;;;;;4972934;28;20818;-72
2023/01/03 00:27:17;;;;;;;2.60;1.13;;;9.80;98.00;;;;;;4972927;28;20481;-72
2023/01/03 00:29:44;;;;;;;2.03;1.37;;;9.80;98.00;;;;;;4972613;28;20485;-72
2023/01/03 00:32:13;;;;;;;2.27;1.40;;;9.70;98.00;;;;;;4972832;28;21079;-72
2023/01/03 00:34:42;;;;;;;1.73;1.17;;;9.70;98.00;;;;;;4973035;28;20480;-72
2023/01/03 00:37:09;;;;;;;1.80;1.37;;;9.70;98.00;;;;;;4972631;28;20522;-72
2023/01/03 00:39:37;;;;;;;1.30;1.10;;;9.60;98.00;;;;;;4972897;28;20477;-72
2023/01/03 00:42:04;;;;;;;1.43;1.20;;;9.60;98.00;;;;;;4955276;28;20538;-72
2023/01/03 00:44:31;;;;;;;1.77;1.37;;;9.60;98.00;;;;;;4973216;28;20469;-72
2023/01/03 00:46:59;;;;;;;1.20;1.20;;;9.60;98.00;;;;;;4976164;28;20460;-72
2023/01/03 00:49:27;;;;;;;1.50;1.20;;;9.60;98.00;;;;;;4975981;28;20836;-72
2023/01/03 00:51:55;;;;;;;2.23;1.40;;;9.70;98.00;;;;;;4976250;28;20847;-72
2023/01/03 00:54:22;;;;;;;1.40;1.20;;;9.70;98.00;;;;;;4976077;28;20453;-72
2023/01/03 00:56:52;;;;;;;2.10;1.37;;;9.70;98.00;;;;;;4976371;28;20495;-72
2023/01/03 00:59:21;;;;;;;1.30;1.10;;;9.60;98.00;;;;;;4976064;28;20464;-72
2023/01/03 01:01:51;;;;;;;1.33;1.10;;;9.60;98.00;;;;;;4975953;28;20457;-72
2023/01/03 01:04:20;;;;;;;1.60;1.33;;;9.60;98.00;;;;;;4976032;28;20468;-72
2023/01/03 01:06:51;;;;;;;1.50;1.30;;;9.60;98.00;;;;;;4975991;28;20461;-72
2023/01/03 01:09:20;;;;;;;1.50;1.30;;;9.70;98.00;;;;;;4976061;28;20461;-72
2023/01/03 01:11:47;;;;;;;2.70;1.37;;;9.60;98.00;;;;;;4975937;28;20453;-72
2023/01/03 01:14:21;;;;;;;1.53;1.40;;;9.50;98.00;;;;;;4976037;28;20450;-72
2023/01/03 01:16:50;;;;;;;1.53;1.30;;;9.50;98.00;;;;;;4975534;28;20458;-72
2023/01/03 01:19:19;;;;;;;1.50;1.10;;;9.40;98.00;;;;;;4975765;28;20956;-72
2023/01/03 01:21:46;;;;;;;1.20;1.10;;;9.40;98.00;;;;;;4976301;28;20489;-72
2023/01/03 01:24:15;;;;;;;1.43;1.10;;;9.30;98.00;;;;;;4975643;28;20468;-72
2023/01/03 01:26:42;;;;;;;1.30;1.30;;;9.30;98.00;;;;;;4976040;28;20520;-72
2023/01/03 01:29:11;;;;;;;1.70;1.30;;;9.30;98.00;;;;;;4975338;28;20456;-72
2023/01/03 01:31:38;;;;;;;2.50;1.30;;;9.40;98.00;;;;;;4975759;28;20495;-72
2023/01/03 01:34:06;;;;;;;1.83;1.40;;;9.40;98.00;;;;;;4975280;28;20812;-72
2023/01/03 01:36:36;;;;;;;2.93;1.33;;;9.30;98.00;;;;;;4975378;28;20454;-72
2023/01/03 01:39:06;;;;;;;1.93;1.40;;;9.20;98.00;;;;;;4957916;28;20458;-72
2023/01/03 01:44:54;;;;;;;5.00;1.30;;;9.30;98.00;;;;;;4974780;28;20481;-72
2023/01/03 01:47:28;;;;;;;1.30;1.10;;;9.40;98.00;;;;;;4974982;28;20462;-72
2023/01/03 01:49:59;;;;;;;1.70;1.27;;;9.50;98.00;;;;;;4975306;28;20540;-72
2023/01/03 01:52:28;;;;;;;1.20;1.07;;;9.40;98.00;;;;;;4975010;28;20494;-72
2023/01/03 01:54:56;;;;;;;1.47;1.20;;;9.30;98.00;;;;;;4975220;28;20458;-72
2023/01/03 01:57:26;;;;;;;1.33;1.13;;;9.10;98.00;;;;;;4974842;28;20566;-72
2023/01/03 01:59:53;;;;;;;1.50;1.30;;;9.00;98.00;;;;;;4975097;28;20456;-72
2023/01/03 02:02:22;;;;;;;1.50;1.23;;;9.10;98.00;;;;;;4974957;28;20464;-72
2023/01/03 02:04:53;;;;;;;1.67;1.40;;;9.10;98.00;;;;;;4975047;28;20484;-72
2023/01/03 02:07:22;;;;;;;2.80;1.20;;;9.20;98.00;;;;;;4975011;28;20559;-72
2023/01/03 02:09:52;;;;;;;1.77;1.37;;;9.10;98.00;;;;;;4974799;28;20464;-72
2023/01/03 02:15:24;;;;;;;7.93;1.43;;;9.00;98.00;;;;;;4974859;28;20472;-72
2023/01/03 02:18:03;;;;;;;1.97;1.10;;;9.00;98.00;;;;;;4974850;28;20465;-72
2023/01/03 02:20:55;;;;;;;1.20;1.00;;;8.90;98.00;;;;;;4974921;28;20533;-72
2023/01/03 02:23:40;;;;;;;11.60;1.27;;;8.80;98.00;;;;;;4974494;28;20942;-72
2023/01/03 02:26:31;;;;;;;2.07;1.10;;;8.80;98.00;;;;;;4974404;28;21107;-72
2023/01/03 02:29:31;;;;;;;1.50;1.20;;;8.70;98.00;;;;;;4974426;28;20466;-72
2023/01/03 02:32:07;;;;;;;1.30;1.07;;;8.60;98.00;;;;;;4974174;28;20489;-72
2023/01/03 02:34:42;;;;;;;1.67;1.20;;;8.70;98.00;;;;;;4974282;28;20516;-72
2023/01/03 02:37:18;;;;;;;1.23;1.03;;;8.60;98.00;;;;;;4974325;28;20468;-72
2023/01/03 02:39:52;;;;;;;1.80;1.20;;;8.70;98.00;;;;;;4974372;28;20494;-72
2023/01/03 02:45:17;;;;;;;1.60;1.10;;;8.60;98.00;;;;;;4974138;28;20526;-72
2023/01/03 02:47:51;;;;;;;1.93;1.20;;;8.60;98.00;;;;;;4974184;28;20903;-72
2023/01/03 02:50:22;;;;;;;1.40;1.20;;;8.70;98.00;;;;;;4973876;28;20490;-72
2023/01/03 02:52:52;;;;;;;1.20;1.00;;;8.80;98.00;;;;;;4974042;28;21219;-72
2023/01/03 02:55:25;;;;;;;1.30;1.10;;;8.80;98.00;;;;;;4957273;28;20444;-72
2023/01/03 02:58:00;;;;;;;1.90;1.30;;;8.80;98.00;;;;;;4974026;28;20536;-72
2023/01/03 03:00:30;;;;;;;1.50;1.20;;;8.90;98.00;;;;;;4973862;28;20465;-72
2023/01/03 03:03:03;;;;;;;1.90;1.40;;;8.80;98.00;;;;;;4973950;28;20460;-72
2023/01/03 03:05:36;;;;;;;1.23;1.07;;;8.70;98.00;;;;;;4973771;28;20460;-72
2023/01/03 03:08:04;;;;;;;1.50;1.10;;;8.50;98.00;;;;;;4973247;28;20852;-72
2023/01/03 03:13:26;;;;;;;1.50;1.30;;;8.50;98.00;;;;;;4973876;28;20856;-72
2023/01/03 03:15:57;;;;;;;2.17;1.23;;;8.30;98.00;;;;;;4973635;28;20461;-72
2023/01/03 03:18:33;;;;;;;1.20;1.00;;;8.30;98.00;;;;;;4973824;28;20473;-72
2023/01/03 03:26:39;;;;;;;1.73;1.27;;;8.30;98.00;;;;;;4973632;28;20804;-72
2023/01/03 03:29:10;;;;;;;1.27;1.27;;;8.20;98.00;;;;;;4973381;28;20471;-72
2023/01/03 03:31:41;;;;;;;2.03;1.30;;;8.30;98.00;;;;;;4973093;28;20536;-72
2023/01/03 03:34:13;;;;;;;1.70;1.10;;;8.30;98.00;;;;;;4973457;28;20486;-72
2023/01/03 03:36:48;;;;;;;3.20;1.30;;;8.20;98.00;;;;;;4973407;28;20468;-72
2023/01/03 03:45:07;;;;;;;1.50;1.20;;;7.80;98.00;;;;;;4973385;28;20457;-72
2023/01/03 03:47:43;;;;;;;2.40;1.33;;;7.90;98.00;;;;;;4973350;28;20462;-72
2023/01/03 03:50:19;;;;;;;1.67;1.20;;;8.00;98.00;;;;;;4973082;28;20469;-72
2023/01/03 03:52:52;;;;;;;1.97;1.40;;;8.00;98.00;;;;;;4973445;28;20469;-72
2023/01/03 03:55:24;;;;;;;2.10;1.30;;;8.00;98.00;;;;;;4956488;28;20496;-72
2023/01/03 03:57:58;;;;;;;1.40;1.10;;;8.00;98.00;;;;;;4973245;28;20449;-72
2023/01/03 04:00:30;;;;;;;1.70;1.10;;;8.00;98.00;;;;;;4973101;28;21009;-72
2023/01/03 04:03:00;;;;;;;1.80;1.50;;;8.10;98.00;;;;;;4973098;28;20465;-72
2023/01/03 04:05:34;;;;;;;1.43;1.10;;;8.00;98.00;;;;;;4973197;28;20465;-72
2023/01/03 04:08:01;;;;;;;1.97;1.43;;;8.00;98.00;;;;;;4973174;28;20469;-72
2023/01/03 04:10:29;;;;;;;1.20;1.03;;;7.90;98.00;;;;;;4972971;28;20481;-72
2023/01/03 04:12:56;;;;;;;1.40;1.23;;;7.80;98.00;;;;;;4973242;28;20476;-72
2023/01/03 04:15:23;;;;;;;3.83;1.23;;;7.80;98.00;;;;;;4972943;28;20461;-72
2023/01/03 04:17:50;;;;;;;1.53;1.30;;;7.80;98.00;;;;;;4973399;28;20460;-72
2023/01/03 04:20:18;;;;;;;2.13;1.40;;;7.90;98.00;;;;;;4974664;28;20461;-72
2023/01/03 04:22:46;;;;;;;1.60;1.30;;;7.80;98.00;;;;;;4976802;28;20449;-72
2023/01/03 04:25:13;;;;;;;1.63;1.30;;;7.90;98.00;;;;;;4976693;28;20459;-72
2023/01/03 04:27:40;;;;;;;1.30;1.00;;;7.80;98.00;;;;;;4976591;28;20460;-72
2023/01/03 04:30:10;;;;;;;1.77;1.30;;;7.70;98.00;;;;;;4976328;28;20453;-72
2023/01/03 04:32:37;;;;;;;1.50;1.10;;;7.50;98.00;;;;;;4976512;28;20818;-72
2023/01/03 04:35:05;;;;;;;1.30;1.20;;;7.50;98.00;;;;;;4976378;28;20467;-72
2023/01/03 04:37:33;;;;;;;2.33;1.47;;;7.70;98.00;;;;;;4976378;28;20460;-72
2023/01/03 04:40:01;;;;;;;1.67;1.07;;;7.80;98.00;;;;;;4976448;28;20458;-72
2023/01/03 04:45:18;;;;;;;1.40;1.10;;;7.50;98.00;;;;;;4938474;28;20471;-72
2023/01/03 04:47:45;;;;;;;1.20;1.00;;;7.50;98.00;;;;;;4976218;28;20468;-72
2023/01/03 04:50:12;;;;;;;1.30;1.27;;;7.40;98.00;;;;;;4976291;28;20467;-72
2023/01/03 04:52:39;;;;;;;1.53;1.10;;;7.30;98.00;;;;;;4959245;28;20902;-72
2023/01/03 04:55:09;;;;;;;2.57;1.20;;;7.30;98.00;;;;;;4976163;28;20457;-72
2023/01/03 04:57:36;;;;;;;1.30;1.17;;;7.30;98.00;;;;;;4976285;28;20466;-72
2023/01/03 05:00:04;;;;;;;1.30;1.10;;;7.30;98.00;;;;;;4958902;28;20469;-72
2023/01/03 05:02:31;;;;;;;1.60;1.20;;;7.20;98.00;;;;;;4976093;28;20470;-72
2023/01/03 05:04:58;;;;;;;1.90;1.37;;;7.20;98.00;;;;;;4976132;28;20457;-72
2023/01/03 05:07:27;;;;;;;1.20;1.00;;;7.20;98.00;;;;;;4976007;28;20932;-72
2023/01/03 05:09:54;;;;;;;1.37;1.23;;;7.00;98.00;;;;;;4976044;28;20464;-72
2023/01/03 05:12:23;;;;;;;2.70;1.37;;;7.00;98.00;;;;;;4975858;28;20493;-72
2023/01/03 05:14:50;;;;;;;1.30;1.10;;;6.90;98.00;;;;;;4975983;28;20467;-72
2023/01/03 05:17:18;;;;;;;2.23;1.37;;;6.90;98.00;;;;;;4976113;28;20453;-72
2023/01/03 05:27:57;;;;;;;1.97;1.20;;;7.00;98.00;;;;;;4975539;28;20452;-72
2023/01/03 05:30:25;;;;;;;1.77;1.20;;;6.90;98.00;;;;;;4974991;28;20469;-72
2023/01/03 05:32:53;;;;;;;1.70;1.27;;;6.90;98.00;;;;;;4975712;28;20998;-72
2023/01/03 05:35:20;;;;;;;1.60;1.40;;;6.80;98.00;;;;;;4975277;28;20464;-72
2023/01/03 05:37:47;;;;;;;1.50;1.30;;;6.80;98.00;;;;;;4975465;28;20471;-72
2023/01/03 05:40:14;;;;;;;1.50;1.20;;;6.80;98.00;;;;;;4975151;28;20546;-72
2023/01/03 05:42:41;;;;;;;1.60;1.50;;;6.80;98.00;;;;;;4975202;28;20456;-72
2023/01/03 05:45:10;;;;;;;1.20;1.00;;;6.70;98.00;;;;;;4975261;28;20532;-72
2023/01/03 05:47:37;;;;;;;1.40;1.10;;;6.60;98.00;;;;;;4974800;28;20484;-72
2023/01/03 05:50:05;;;;;;;1.30;1.20;;;6.60;98.00;;;;;;4974590;28;20460;-72
2023/01/03 05:52:33;;;;;;;1.20;1.10;;;6.50;98.00;;;;;;4974235;28;20838;-72
2023/01/03 05:55:00;;;;;;;1.23;1.10;;;6.70;98.00;;;;;;4974383;28;20462;-72
2023/01/03 05:57:27;;;;;;;2.13;1.20;;;6.70;98.00;;;;;;4974475;28;20463;-72
2023/01/03 05:59:54;;;;;;;1.30;1.10;;;6.70;98.00;;;;;;4974328;28;20462;-72
2023/01/03 06:02:22;;;;;;;1.97;1.30;;;6.80;98.00;;;;;;4974358;28;20795;-72
2023/01/03 06:04:51;;;;;;;1.30;1.30;;;6.70;98.00;;;;;;4974373;28;20962;-72
2023/01/03 06:07:18;;;;;;;1.50;1.17;;;6.80;98.00;;;;;;4974275;28;20457;-72
2023/01/03 06:09:47;;;;;;;1.70;1.30;;;6.70;98.00;;;;;;4974140;28;20968;-71
2023/01/03 06:12:14;;;;;;;1.30;1.20;;;6.40;98.00;;;;;;4973833;28;21006;-72
2023/01/03 06:14:41;;;;;;;2.23;1.50;;;6.40;98.00;;;;;;4974223;28;20589;-72
2023/01/03 06:19:53;;;;;;;2.07;1.40;;;6.40;98.00;;;;;;4974385;28;20466;-72
2023/01/03 06:22:21;;;;;;;2.10;1.20;;;6.30;98.00;;;;;;4973916;28;20461;-72
2023/01/03 06:24:48;;;;;;;1.63;1.30;;;6.20;98.00;;;;;;4973885;28;20458;-72
2023/01/03 06:27:15;;;;;;;1.37;1.20;;;6.20;98.00;;;;;;4973778;28;20456;-72
2023/01/03 06:29:42;;;;;;;1.50;1.10;;;6.30;98.00;;;;;;4973060;28;20990;-72
2023/01/03 06:32:10;;;;;;;1.67;1.33;;;6.30;98.00;;;;;;4973689;28;20488;-72
2023/01/03 06:34:38;;;;;;;1.97;1.33;;;6.30;98.00;;;;;;4973732;28;20549;-72
2023/01/03 06:37:06;;;;;;;1.47;1.43;;;6.30;98.00;;;;;;4973498;28;20456;-72
2023/01/03 06:39:33;;;;;;;1.47;1.13;;;6.30;98.00;;;;;;4973405;28;20946;-72
2023/01/03 06:42:38;;;;;;;1.50;1.13;;;6.50;98.00;;;;;;4972738;28;20484;-72
2023/01/03 06:53:10;;;;;;;1.80;1.40;;;6.40;98.00;;;;;;4973298;28;20454;-72
2023/01/03 06:53:12;;;;;;;1.87;1.40;;;6.20;98.00;;;;;;4973350;28;20484;-72
2023/01/03 06:55:39;;;;;;;1.60;1.17;;;6.10;98.00;;;;;;4973267;28;20673;-72
2023/01/03 06:58:06;;;;;;;1.50;1.37;;;6.10;98.00;;;;;;4973095;28;20460;-72
2023/01/03 07:00:38;;;;;;;8.10;1.53;;;6.10;98.00;;;;;;4973124;28;20494;-71
2023/01/03 07:03:05;;;;;;;1.60;1.40;;;6.10;98.00;;;;;;4973106;28;20876;-70
2023/01/03 07:05:32;;;;;;;2.60;1.80;;;6.20;98.00;;;;;;4973020;28;20460;-70
2023/01/03 07:08:00;;;;;;;3.80;1.80;;;6.10;98.00;;;;;;4973088;28;20455;-70
2023/01/03 07:10:29;;;;;;;1.70;1.33;;;5.90;98.00;;;;;;4972895;28;20853;-70
2023/01/03 07:15:44;;;;;;;1.93;1.30;;;5.70;98.00;;;;;;4973142;28;20445;-70
2023/01/03 07:18:12;;;;;;;4.20;1.70;;;5.60;98.00;;;;;;4973161;28;20457;-70
2023/01/03 07:20:42;;;;;;;2.43;1.53;;;5.70;98.00;;;;;;4955855;28;20474;-70
2023/01/03 07:23:09;;;;;;;1.30;1.17;;;5.60;98.00;;;;;;4972863;28;20557;-71
2023/01/03 07:25:40;;;;;;;1.37;1.23;;;5.70;98.00;;;;;;4972679;28;20466;-71
2023/01/03 07:28:08;;;;;;;2.73;1.70;;;5.70;98.00;;;;;;4972786;28;20478;-71
2023/01/03 07:30:39;;;;;;;2.23;1.63;;;5.60;98.00;;;;;;4972768;28;20823;-71
2023/01/03 07:33:06;;;;;;;2.00;1.70;;;5.60;98.00;;;;;;4972851;28;20576;-71
2023/01/03 07:35:34;;;;;;;1.97;1.80;;;5.60;98.00;;;;;;4972603;28;21011;-71
2023/01/03 07:38:02;;;;;;;3.20;1.87;;;5.50;98.00;;;;;;4972680;28;20518;-71
2023/01/03 07:40:33;;;;;;;1.70;1.60;;;5.50;98.00;;;;;;4972222;28;20462;-71
2023/01/03 07:45:46;;;;;;;1.53;1.30;;;5.60;98.00;;;;;;4972611;28;20463;-71
2023/01/03 07:48:14;;;;;;;3.93;1.87;;;5.60;98.00;;;;;;4972493;28;20473;-71
2023/01/03 07:50:42;;;;;;;4.90;1.63;;;5.60;98.00;;;;;;4972748;28;20817;-71
2023/01/03 07:53:15;;;;;;;1.63;1.30;;;5.50;98.00;;;;;;4972781;28;20507;-71
2023/01/03 07:55:44;;;;;;;2.07;1.70;;;5.60;98.00;;;;;;4979080;28;20461;-71
2023/01/03 07:58:13;;;;;;;2.13;1.50;;;5.60;98.00;;;;;;4978844;28;21041;-71
2023/01/03 08:00:40;;;;;;;1.30;1.17;;;5.60;98.00;;;;;;4979109;28;20986;-71
2023/01/03 08:03:08;;;;;;;1.40;1.30;;;5.80;98.00;;;;;;4978869;28;20461;-71
2023/01/03 08:05:35;;;;;;;5.70;1.47;;;5.80;98.00;;;;;;4978839;28;20463;-71
2023/01/03 08:08:03;;;;;;;1.50;1.30;;;5.80;98.00;;;;;;4978766;28;20548;-71
2023/01/03 08:13:19;;;;;;;2.07;1.47;;;6.00;98.00;;;;;;4978887;28;20482;-71
2023/01/03 08:15:48;;;;;;;3.73;2.50;;;6.20;98.00;;;;;;4978846;28;20464;-71
2023/01/03 08:18:16;;;;;;;2.30;1.70;;;6.30;98.00;;;;;;4978932;28;20467;-71
2023/01/03 08:20:43;;;;;;;2.30;2.03;;;6.30;98.00;;;;;;4978715;28;20456;-71
2023/01/03 08:23:10;;;;;;;3.27;2.13;;;6.20;98.00;;;;;;4978705;28;20468;-71
2023/01/03 08:25:40;;;;;;;7.47;3.10;;;6.10;98.00;;;;;;4978583;28;20461;-71
2023/01/03 08:28:09;;;;;;;4.10;2.30;;;6.10;98.00;;;;;;4978485;28;20465;-71
2023/01/03 08:30:42;;;;;;;4.70;3.03;;;6.00;98.00;;;;;;4961289;28;20464;-71
2023/01/03 08:33:12;;;;;;;4.17;2.57;;;6.00;98.00;;;;;;4978394;28;20494;-71
2023/01/03 08:35:42;;;;;;;3.60;2.13;;;6.00;98.00;;;;;;4978442;28;20523;-71
2023/01/03 08:38:15;;;;;;;3.17;1.97;;;6.10;98.00;;;;;;4978716;28;20458;-71
2023/01/03 08:40:45;;;;;;;2.53;1.80;;;6.30;98.00;;;;;;4978473;28;20473;-71
2023/01/03 08:43:15;;;;;;;3.67;2.00;;;6.40;98.00;;;;;;4978491;28;20949;-72
2023/01/03 08:45:44;;;;;;;3.00;1.73;;;6.40;98.00;;;;;;4978488;28;20469;-71
2023/01/03 08:48:12;;;;;;;2.60;1.67;;;6.60;98.00;;;;;;4978373;28;20866;-71
2023/01/03 08:50:39;;;;;;;3.07;1.80;;;6.70;98.00;;;;;;4978434;28;20459;-71
2023/01/03 08:53:06;;;;;;;1.50;1.50;;;6.90;98.00;;;;;;4978208;28;20484;-71
2023/01/03 08:55:37;;;;;;;3.00;2.60;;;7.20;98.00;;;;;;4978365;28;20458;-71
2023/01/03 08:58:04;;;;;;;3.93;1.93;;;7.20;98.00;;;;;;4978408;28;20462;-71
2023/01/03 09:00:31;;;;;;;5.37;2.40;;;7.10;98.00;;;;;;4978171;28;20466;-71
2023/01/03 09:02:59;;;;;;;3.73;1.77;;;7.10;98.00;;;;;;4978194;28;20457;-71
2023/01/03 09:05:27;;;;;;;3.10;1.80;;;7.20;98.00;;;;;;4976338;28;20496;-71
2023/01/03 09:07:54;;;;;;;3.67;2.00;;;7.40;98.00;;;;;;4975205;28;20455;-71
2023/01/03 09:10:21;;;;;;;3.27;2.10;;;7.40;98.00;;;;;;4975079;28;20540;-71
2023/01/03 09:12:50;;;;;;;13.40;2.73;;;7.40;98.00;;;;;;4975246;28;20887;-71
2023/01/03 09:15:17;;;;;;;5.03;2.40;;;7.30;98.00;;;;;;4975284;28;20514;-71
2023/01/03 09:17:46;;;;;;;4.60;2.03;;;7.20;98.00;;;;;;4958229;28;20462;-71
2023/01/03 09:20:16;;;;;;;2.23;1.70;;;7.30;98.00;;;;;;4975026;28;20454;-71
2023/01/03 09:22:44;;;;;;;3.67;1.97;;;7.50;98.00;;;;;;4974969;28;20769;-71
2023/01/03 09:25:11;;;;;;;2.27;1.93;;;7.50;98.00;;;;;;4974615;28;20466;-71
2023/01/03 09:27:38;;;;;;;1.73;1.50;;;7.60;98.00;;;;;;4974899;28;20956;-71
2023/01/03 09:30:06;;;;;;;14.30;2.47;;;7.60;98.00;;;;;;4974730;28;20467;-71
2023/01/03 09:32:33;;;;;;;5.20;3.07;;;7.70;98.00;;;;;;4974809;28;20485;-71
2023/01/03 09:35:00;;;;;;;4.83;1.93;;;7.80;98.00;;;;;;4974849;28;20837;-72
2023/01/03 09:37:29;;;;;;;3.80;2.33;;;7.90;98.00;;;;;;4974542;28;20459;-71
2023/01/03 09:39:57;;;;;;;6.63;2.73;;;8.00;98.00;;;;;;4974567;28;20464;-71
2023/01/03 09:45:15;;;;;;;2.93;2.40;;;8.00;98.00;;;;;;4974738;28;20454;-71
2023/01/03 09:47:44;;;;;;;5.00;2.70;;;8.00;98.00;;;;;;4974715;28;20802;-71
2023/01/03 09:50:19;;;;;;;5.30;3.10;;;8.10;98.00;;;;;;4957276;28;20464;-71
2023/01/03 10:04:42;;;;;;;6.20;2.50;;;8.30;98.00;;;;;;4974330;28;20950;-71
2023/01/03 10:07:19;;;;;;;6.40;3.13;;;8.30;98.00;;;;;;4974182;28;20461;-71
2023/01/03 10:09:57;;;;;;;7.30;2.97;;;8.40;98.00;;;;;;4974383;28;20468;-71
2023/01/03 10:12:38;;;;;;;3.40;2.00;;;8.50;98.00;;;;;;4974177;28;20830;-71
2023/01/03 10:15:18;;;;;;;5.90;2.73;;;8.70;98.00;;;;;;4974294;28;20548;-71
2023/01/03 10:17:58;;;;;;;6.70;2.80;;;8.80;98.00;;;;;;4973256;28;20975;-71
2023/01/03 10:20:38;;;;;;;4.77;2.67;;;8.70;98.00;;;;;;4973962;28;20475;-71
2023/01/03 10:23:07;;;;;;;4.07;2.20;;;8.70;98.00;;;;;;4974200;28;20467;-71
2023/01/03 10:25:41;;;;;;;3.10;2.13;;;8.90;98.00;;;;;;4973894;28;20457;-71
2023/01/03 10:28:14;;;;;;;3.83;2.37;;;9.10;98.00;;;;;;4973973;28;20461;-71
2023/01/03 10:30:57;;;;;;;2.77;1.80;;;9.20;98.00;;;;;;4974061;28;20464;-71
2023/01/03 10:33:33;;;;;;;4.50;2.60;;;9.30;98.00;;;;;;4957806;28;20499;-71
2023/01/03 10:36:01;;;;;;;3.20;2.33;;;9.30;98.00;;;;;;4973624;28;20466;-71
2023/01/03 10:38:29;;;;;;;9.67;2.63;;;9.30;98.00;;;;;;4973559;28;20453;-71
2023/01/03 10:41:00;;;;;;;4.33;2.37;;;9.40;98.00;;;;;;4973246;28;20878;-71
2023/01/03 10:43:30;;;;;;;4.73;2.43;;;9.20;98.00;;;;;;4973396;28;20471;-71
2023/01/03 10:45:59;;;;;;;3.07;2.20;;;9.20;98.00;;;;;;4956674;28;20622;-71
2023/01/03 10:48:36;;;;;;;5.17;2.43;;;9.10;98.00;;;;;;4973300;28;20461;-71
2023/01/03 10:51:22;;;;;;;4.17;2.37;;;9.10;98.00;;;;;;4973361;28;20461;-71
2023/01/03 10:53:52;;;;;;;6.23;2.53;;;9.20;98.00;;;;;;4973272;28;21009;-72
2023/01/03 10:56:21;;;;;;;9.10;2.47;;;9.20;98.00;;;;;;4973178;28;20469;-72
2023/01/03 10:58:48;;;;;;;3.07;2.23;;;9.20;98.00;;;;;;4973370;28;20453;-71
2023/01/03 11:01:21;;;;;;;3.70;2.20;;;9.20;98.00;;;;;;4973152;28;20955;-71
2023/01/03 11:04:09;;;;;;;4.50;2.57;;;9.20;98.00;;;;;;4972797;28;20468;-71
2023/01/03 11:06:36;;;;;;;4.63;2.70;;;9.30;98.00;;;;;;4973129;28;20524;-71
2023/01/03 11:09:06;;;;;;;4.67;2.40;;;9.30;98.00;;;;;;4973394;28;20929;-71
2023/01/03 11:11:36;;;;;;;3.43;1.93;;;9.40;98.00;;;;;;4973294;28;20457;-71
2023/01/03 11:14:15;;;;;;;9.40;3.10;;;9.50;98.00;;;;;;4973127;28;20626;-71
2023/01/03 11:16:44;;;;;;;5.23;2.60;;;9.40;98.00;;;;;;4972952;28;20467;-71
2023/01/03 11:19:18;;;;;;;7.67;3.40;;;9.60;98.00;;;;;;4972748;28;21012;-71
2023/01/03 11:21:50;;;;;;;7.33;3.10;;;9.60;98.00;;;;;;4972957;28;20556;-71
2023/01/03 11:24:30;;;;;;;4.20;2.87;;;9.50;98.00;;;;;;4972817;28;20519;-72
2023/01/03 11:27:06;;;;;;;4.57;2.60;;;9.50;98.00;;;;;;4972897;28;20464;-71
2023/01/03 11:29:47;;;;;;;3.93;2.50;;;9.60;98.00;;;;;;4972609;28;20473;-72
2023/01/03 11:32:26;;;;;;;4.73;2.70;;;9.80;98.00;;;;;;4972564;28;20959;-72
2023/01/03 11:35:26;;;;;;;6.40;3.47;;;10.10;98.00;;;;;;4972620;28;20457;-71
2023/01/03 11:38:05;;;;;;;4.67;2.37;;;10.40;98.00;;;;;;4972814;28;20476;-71
2023/01/03 11:40:41;;;;;;;4.20;2.60;;;10.50;98.00;;;;;;4972560;28;20804;-71
2023/01/03 11:43:30;;;;;;;3.97;2.50;;;10.60;98.00;;;;;;4972706;28;20639;-72
2023/01/03 11:46:24;;;;;;;2.87;2.07;;;10.60;98.00;;;;;;4972664;28;20891;-72
2023/01/03 11:49:20;;;;;;;6.13;2.80;;;10.60;98.00;;;;;;4938492;28;20459;-72
2023/01/03 11:51:59;;;;;;;4.47;2.90;;;10.60;98.00;;;;;;4953420;28;20462;-72
2023/01/03 11:54:44;;;;;;;3.13;2.50;;;10.60;98.00;;;;;;4972393;28;20580;-71
2023/01/03 11:57:23;;;;;;;5.17;2.60;;;10.40;98.00;;;;;;4972557;28;20472;-72
2023/01/03 12:00:02;;;;;;;4.33;2.30;;;10.30;98.00;;;;;;4972142;28;20462;-71
2023/01/03 12:02:52;;;;;;;4.07;2.40;;;10.10;98.00;;;;;;4972383;28;20471;-72
2023/01/03 12:05:56;;;;;;;3.90;2.37;;;10.00;98.00;;;;;;4972707;28;20464;-72
2023/01/03 12:08:47;;;;;;;3.93;2.17;;;9.90;98.00;;;;;;4960436;28;20535;-72
2023/01/03 12:11:28;;;;;;;5.93;2.33;;;9.90;98.00;;;;;;4972460;28;20468;-72
2023/01/03 12:14:04;;;;;;;6.53;2.80;;;9.80;98.00;;;;;;4972375;28;20860;-71
2023/01/03 12:16:38;;;;;;;2.37;1.73;;;9.80;98.00;;;;;;4956024;28;20559;-71
2023/01/03 12:19:13;;;;;;;5.00;2.43;;;9.80;98.00;;;;;;4972314;28;20515;-72
2023/01/03 12:21:45;;;;;;;2.93;2.10;;;9.80;98.00;;;;;;4972186;28;20852;-72
2023/01/03 12:24:17;;;;;;;2.17;1.83;;;10.00;98.00;;;;;;4972253;28;20463;-72
2023/01/03 12:26:51;;;;;;;5.20;2.47;;;9.90;98.00;;;;;;4972350;28;20963;-72
2023/01/03 12:29:24;;;;;;;2.57;2.10;;;10.00;98.00;;;;;;4972124;28;20460;-72
2023/01/03 12:32:00;;;;;;;6.00;2.37;;;10.30;98.00;;;;;;4972218;28;20457;-71
2023/01/03 12:34:35;;;;;;;3.90;2.20;;;10.50;98.00;;;;;;4972075;28;20494;-72
2023/01/03 12:37:13;;;;;;;3.57;2.10;;;11.00;98.00;;;;;;4972119;28;20468;-71
2023/01/03 12:39:49;;;;;;;2.23;1.73;;;11.50;98.00;;;;;;4972117;28;20468;-71
2023/01/03 12:42:27;;;;;;;5.40;2.67;;;11.80;98.00;;;;;;4975191;28;20472;-72
2023/01/03 12:45:02;;;;;;;4.77;2.80;;;12.00;98.00;;;;;;4975720;28;20463;-71
2023/01/03 12:47:35;;;;;;;4.23;2.00;;;12.20;98.00;;;;;;4975709;28;20521;-72
2023/01/03 12:50:10;;;;;;;3.63;2.07;;;12.20;98.00;;;;;;4975594;28;20489;-72
2023/01/03 12:52:39;;;;;;;3.07;2.00;;;11.90;98.00;;;;;;4975599;28;20954;-72
2023/01/03 12:55:17;;;;;;;2.53;1.93;;;11.90;98.00;;;;;;4975557;28;20973;-71
2023/01/03 12:58:15;;;;;;;3.10;2.07;;;12.30;98.00;;;;;;4975636;28;20467;-71
2023/01/03 13:00:58;;;;;;;2.40;1.50;;;12.70;98.00;;;;;;4975437;28;20460;-72
2023/01/03 13:03:30;;;;;;;3.37;1.60;;;13.20;98.00;;;;;;4973271;28;20477;-72
2023/01/03 13:06:00;;;;;;;1.97;1.50;;;13.50;98.00;;;;;;4975698;28;20457;-71
2023/01/03 13:08:36;;;;;;;2.70;1.60;;;13.70;98.00;;;;;;4975268;28;20525;-72
2023/01/03 13:11:08;;;;;;;2.87;1.73;;;14.20;98.00;;;;;;4975295;28;20945;-72
2023/01/03 13:13:35;;;;;;;3.30;1.43;;;14.50;98.00;;;;;;4975124;28;21012;-72
2023/01/03 13:16:44;;;;;;;1.70;1.40;;;14.80;98.00;;;;;;4975104;28;20811;-72
2023/01/03 13:19:52;;;;;;;4.53;1.70;;;15.00;98.00;;;;;;4928985;28;20489;-72
2023/01/03 13:22:47;;;;;;;3.20;1.80;;;14.90;98.00;;;;;;4936553;28;20532;-72
2023/01/03 13:25:42;;;;;;;1.87;1.43;;;14.60;98.00;;;;;;4968180;28;20466;-72
2023/01/03 13:28:33;;;;;;;2.83;1.60;;;14.00;98.00;;;;;;4957870;28;20546;-72
2023/01/03 13:31:34;;;;;;;1.40;1.20;;;13.60;98.00;;;;;;4974704;28;20494;-72
2023/01/03 13:34:15;;;;;;;1.97;1.40;;;13.20;98.00;;;;;;4970944;28;20580;-72
2023/01/03 13:37:17;;;;;;;1.73;1.50;;;12.80;98.00;;;;;;4974929;28;20997;-72
2023/01/03 13:40:22;;;;;;;1.60;1.20;;;12.50;98.00;;;;;;4974823;28;20864;-72
2023/01/03 13:43:01;;;;;;;1.40;1.30;;;12.30;98.00;;;;;;4962907;28;20465;-72
2023/01/03 13:46:00;;;;;;;1.70;1.40;;;12.30;98.00;;;;;;4974553;28;20465;-72
2023/01/03 13:48:31;;;;;;;3.57;1.37;;;12.30;98.00;;;;;;4974728;28;20466;-72
2023/01/03 13:51:37;;;;;;;3.63;1.43;;;12.30;98.00;;;;;;4974486;28;20468;-72
2023/01/03 13:54:43;;;;;;;1.70;1.27;;;12.40;98.00;;;;;;4974409;28;20486;-72
2023/01/03 13:57:35;;;;;;;2.03;1.30;;;12.30;98.00;;;;;;4974397;28;20458;-72
2023/01/03 14:00:06;;;;;;;2.07;1.40;;;12.20;98.00;;;;;;4974436;28;20853;-72
2023/01/03 14:03:08;;;;;;;1.40;1.30;;;12.30;98.00;;;;;;4973296;28;20517;-72
2023/01/03 14:06:13;;;;;;;1.40;1.20;;;12.20;98.00;;;;;;4974473;28;20508;-72
2023/01/03 14:09:25;;;;;;;4.77;2.10;;;12.10;98.00;;;;;;4974332;28;20454;-72
2023/01/03 14:12:09;;;;;;;1.40;1.30;;;12.00;98.00;;;;;;4973856;28;20599;-72
2023/01/03 14:14:40;;;;;;;3.50;1.40;;;12.10;98.00;;;;;;4956725;28;20998;-72
2023/01/03 14:17:16;;;;;;;1.30;1.20;;;12.10;98.00;;;;;;4974043;28;20461;-72
2023/01/03 14:19:50;;;;;;;2.73;1.30;;;12.10;98.00;;;;;;4956605;28;20463;-72
2023/01/03 14:22:20;;;;;;;1.50;1.40;;;12.10;98.00;;;;;;4974001;28;20488;-72
2023/01/03 14:24:50;;;;;;;1.50;1.30;;;12.00;98.00;;;;;;4974001;28;20468;-72
2023/01/03 14:27:21;;;;;;;1.70;1.50;;;11.80;98.00;;;;;;4973790;28;20462;-72
2023/01/03 14:29:52;;;;;;;1.87;1.50;;;11.70;98.00;;;;;;4973704;28;20457;-72